Time;durP1;ratioP1;P1;durP2;ratioP2;P2;SDS_P1;SDS_P2;PMS_P1;PMS_P2;Temp;Humidity;BMP_temperature;BMP_pressure;BME280_temperature;BME280_humidity;BME280_pressure;Samples;Min_cycle;Max_cycle;Signal;HPM_P1;HPM_P2
2022/11/14 00:06:38;;;;;;;36.50;19.60;;;;;;;7.45;100.00;101439.13;20863182;28;20045;-70
2022/11/14 00:17:00;;;;;;;36.60;20.97;;;;;;;7.49;100.00;101440.69;20880073;23;20056;-68
2022/11/14 00:27:22;;;;;;;34.43;20.93;;;;;;;7.51;100.00;101425.91;20903987;28;20345;-67
2022/11/14 00:37:43;;;;;;;33.73;20.07;;;;;;;7.45;100.00;101420.13;20931184;28;20400;-67
2022/11/14 00:48:05;;;;;;;41.50;19.93;;;;;;;7.45;99.98;101413.19;20953248;28;20920;-67
2022/11/14 00:58:26;;;;;;;36.47;20.83;;;;;;;7.38;100.00;101406.59;20954333;28;20048;-67
2022/11/14 01:08:49;;;;;;;35.03;20.42;;;;;;;7.34;100.00;101378.25;20950025;28;20307;-67
2022/11/14 01:19:11;;;;;;;32.50;19.35;;;;;;;7.32;100.00;101391.28;20947776;28;20477;-67
2022/11/14 01:29:33;;;;;;;41.13;21.97;;;;;;;7.21;100.00;101383.09;20950900;28;20422;-67
2022/11/14 01:39:54;;;;;;;37.67;20.73;;;;;;;7.06;100.00;101360.41;20964551;28;20495;-67
2022/11/14 01:50:16;;;;;;;37.00;19.17;;;;;;;6.98;99.52;101344.34;20950217;28;20041;-67
2022/11/14 02:00:38;;;;;;;37.92;21.08;;;;;;;6.92;99.61;101323.88;20952509;28;20048;-68
2022/11/14 02:10:59;;;;;;;35.08;20.77;;;;;;;6.88;99.73;101305.94;20950408;28;20040;-67
2022/11/14 02:21:21;;;;;;;38.97;20.30;;;;;;;6.83;99.64;101293.19;20963498;28;20051;-68
2022/11/14 02:31:42;;;;;;;35.40;19.70;;;;;;;6.79;98.91;101276.06;20948148;28;20102;-67
2022/11/14 02:42:05;;;;;;;41.10;19.63;;;;;;;6.73;99.08;101265.94;20949122;28;20489;-67
2022/11/14 02:52:26;;;;;;;36.67;20.55;;;;;;;6.74;99.54;101252.09;20948001;28;20052;-66
2022/11/14 03:02:48;;;;;;;33.80;19.97;;;;;;;6.69;98.88;101251.44;20961809;28;20062;-67
2022/11/14 03:13:09;;;;;;;35.73;19.47;;;;;;;6.62;98.79;101249.19;20962338;28;20045;-69
2022/11/14 03:23:31;;;;;;;38.60;20.00;;;;;;;6.57;98.61;101232.13;20945239;28;20049;-68
2022/11/14 03:33:53;;;;;;;34.63;19.90;;;;;;;6.58;98.93;101221.72;20960237;28;20450;-71
2022/11/14 03:44:14;;;;;;;38.70;20.50;;;;;;;6.53;97.91;101209.88;20961074;28;20105;-71
2022/11/14 03:54:37;;;;;;;38.83;20.20;;;;;;;6.49;97.85;101200.56;20947366;28;20040;-71
2022/11/14 04:04:58;;;;;;;34.90;19.67;;;;;;;6.43;97.72;101205.97;20953339;28;20571;-71
2022/11/14 04:15:20;;;;;;;36.47;20.70;;;;;;;6.40;97.67;101208.72;20953659;28;20044;-70
2022/11/14 04:25:43;;;;;;;35.73;20.00;;;;;;;6.34;97.07;101214.13;20946614;28;20516;-71
2022/11/14 04:36:04;;;;;;;37.92;19.27;;;;;;;6.31;97.60;101184.03;20936620;28;20060;-71
2022/11/14 04:46:26;;;;;;;36.67;19.10;;;;;;;6.32;97.13;101179.69;20948751;28;20045;-71
2022/11/14 04:56:48;;;;;;;35.20;18.80;;;;;;;6.29;97.05;101172.91;20951021;28;20044;-71
2022/11/14 05:07:09;;;;;;;38.85;20.10;;;;;;;6.25;97.33;101162.75;20950518;28;20044;-71
2022/11/14 05:17:31;;;;;;;38.42;20.65;;;;;;;6.20;97.39;101146.56;20967932;28;20044;-71
2022/11/14 05:27:52;;;;;;;39.17;20.80;;;;;;;6.19;98.09;101137.09;20951854;28;20081;-71
2022/11/14 05:38:14;;;;;;;36.20;19.67;;;;;;;6.15;97.83;101126.06;20960685;28;20614;-71
2022/11/14 05:48:36;;;;;;;38.40;19.63;;;;;;;6.13;98.12;101114.91;20961522;28;20463;-71
2022/11/14 05:58:58;;;;;;;43.60;22.10;;;;;;;6.13;97.90;101103.72;20970002;28;20049;-71
2022/11/14 06:09:19;;;;;;;41.83;22.27;;;;;;;6.13;98.31;101111.47;20968945;28;20086;-71
2022/11/14 06:19:41;;;;;;;40.47;21.67;;;;;;;6.11;98.03;101100.38;20969607;28;20048;-72
2022/11/14 06:30:03;;;;;;;43.60;22.10;;;;;;;6.07;98.25;101107.41;20964712;28;20060;-71
2022/11/14 06:40:25;;;;;;;47.20;23.45;;;;;;;6.15;98.30;101109.66;20977901;28;20459;-71
2022/11/14 06:50:51;;;;;;;41.63;21.23;;;;;;;6.18;98.25;101117.31;20962912;28;20150;-71
2022/11/14 07:01:14;;;;;;;45.67;22.08;;;;;;;6.13;98.22;101120.09;20965150;28;20191;-71
2022/11/14 07:11:36;;;;;;;44.72;22.05;;;;;;;6.16;98.12;101121.72;20964377;28;20152;-71
2022/11/14 07:21:58;;;;;;;;;;;;;;;6.15;98.34;101130.38;20962712;28;20063;-72
2022/11/14 07:32:19;;;;;;;43.97;22.67;;;;;;;6.17;98.64;101116.47;20956030;28;19924;-71
2022/11/14 07:42:41;;;;;;;48.80;23.67;;;;;;;6.15;98.88;101120.03;20959724;28;20049;-72
2022/11/14 07:53:02;;;;;;;49.08;22.08;;;;;;;6.23;98.33;101123.16;20970346;28;20426;-71
2022/11/14 08:03:24;;;;;;;48.60;23.70;;;;;;;6.23;98.31;101103.25;20951359;28;20044;-72
2022/11/14 08:13:45;;;;;;;46.43;22.57;;;;;;;6.25;98.20;101098.03;20956880;28;20100;-71
2022/11/14 08:24:07;;;;;;;50.63;22.63;;;;;;;6.19;97.89;101100.88;20951483;28;20122;-71
2022/11/14 08:34:29;;;;;;;48.67;22.20;;;;;;;6.31;98.40;101095.19;20956755;28;20139;-70
2022/11/14 08:44:50;;;;;;;46.73;22.07;;;;;;;6.46;97.56;101081.56;20952787;28;20036;-71
2022/11/14 08:55:13;;;;;;;50.70;23.60;;;;;;;6.44;97.52;101073.03;20968219;28;20131;-71
2022/11/14 09:05:36;;;;;;;49.17;22.43;;;;;;;6.45;97.72;101065.22;20956362;28;20518;-72
2022/11/14 09:15:58;;;;;;;47.13;22.70;;;;;;;6.48;97.18;101067.63;20952935;28;20125;-71
2022/11/14 09:26:19;;;;;;;48.80;22.57;;;;;;;6.45;96.98;101064.34;20953425;28;20102;-71
2022/11/14 09:36:41;;;;;;;49.83;22.93;;;;;;;6.48;97.08;101062.47;20967522;28;20482;-71
2022/11/14 09:47:09;;;;;;;48.33;24.10;;;;;;;6.59;96.88;101065.44;20952087;28;20193;-71
2022/11/14 09:57:31;;;;;;;51.15;23.65;;;;;;;6.67;96.91;101068.50;20966700;28;20048;-71
2022/11/14 10:08:19;;;;;;;49.30;23.40;;;;;;;6.77;96.51;101047.31;20953820;28;20059;-71
2022/11/14 10:19:06;;;;;;;53.58;22.63;;;;;;;6.77;95.46;101049.91;20950216;28;20045;-71
2022/11/14 10:29:40;;;;;;;46.88;22.42;;;;;;;6.89;94.97;101036.38;20974916;28;20078;-71
2022/11/14 10:40:24;;;;;;;45.28;22.40;;;;;;;6.93;95.44;101027.56;20955682;28;20192;-72
2022/11/14 10:50:53;;;;;;;41.58;21.17;;;;;;;6.84;95.32;101004.66;20961736;28;20133;-72
2022/11/14 11:01:38;;;;;;;43.85;21.67;;;;;;;6.79;95.46;100995.41;20964510;28;20104;-72
2022/11/14 11:12:01;;;;;;;42.53;21.40;;;;;;;6.85;95.58;100970.06;20956381;28;20485;-72
2022/11/14 11:22:37;;;;;;;38.83;20.45;;;;;;;6.86;94.70;100945.84;20961959;28;20783;-71
2022/11/14 11:33:20;;;;;;;40.88;21.58;;;;;;;6.82;95.07;100933.97;20959138;28;20049;-72
2022/11/14 11:43:46;;;;;;;42.05;21.20;;;;;;;6.92;95.37;100929.16;20958463;28;20129;-72
2022/11/14 11:54:23;;;;;;;40.33;20.23;;;;;;;7.00;94.75;100922.69;20973266;28;20052;-71
2022/11/14 12:04:45;;;;;;;45.15;21.33;;;;;;;7.06;94.68;100927.59;20971566;28;20044;-71
2022/11/14 12:15:14;;;;;;;40.13;20.65;;;;;;;7.16;93.90;100917.63;20951252;28;20123;-72
2022/11/14 12:26:06;;;;;;;38.42;20.48;;;;;;;7.25;94.08;100905.03;20703294;23;20891;-68
2022/11/14 12:36:33;;;;;;;38.97;19.77;;;;;;;7.21;93.79;100911.28;20593365;28;20074;-68
2022/11/14 12:47:07;;;;;;;37.22;19.70;;;;;;;7.19;93.15;100897.56;20593843;28;20106;-67
2022/11/14 12:58:02;;;;;;;36.10;17.77;;;;;;;7.21;93.01;100875.00;20600633;28;20512;-68
2022/11/14 13:08:41;;;;;;;41.03;19.95;;;;;;;7.24;93.07;100869.66;20539797;28;20050;-67
2022/11/14 13:29:50;;;;;;;35.67;18.77;;;;;;;7.33;93.12;100871.78;20566470;28;20426;-66
2022/11/14 13:40:27;;;;;;;39.97;18.98;;;;;;;7.29;93.34;100846.91;20580629;28;20532;-66
2022/11/14 13:50:54;;;;;;;41.70;19.52;;;;;;;7.27;93.13;100840.16;20574321;28;20042;-65
2022/11/14 14:01:28;;;;;;;44.10;19.63;;;;;;;7.25;93.92;100829.88;20592526;28;20114;-67
2022/11/14 14:12:27;;;;;;;38.42;19.33;;;;;;;7.24;93.81;100824.75;20591581;28;20406;-66
2022/11/14 14:22:51;;;;;;;37.00;19.42;;;;;;;7.21;93.81;100827.47;20562661;28;20043;-66
2022/11/14 14:33:14;;;;;;;38.75;20.40;;;;;;;7.19;94.68;100822.38;20559838;28;20047;-66
2022/11/14 14:43:35;;;;;;;39.17;19.42;;;;;;;7.11;94.81;100802.94;20540505;28;20062;-65
2022/11/14 14:53:57;;;;;;;40.80;20.17;;;;;;;7.04;94.60;100799.84;20556153;28;20038;-65
2022/11/14 15:04:21;;;;;;;40.50;19.90;;;;;;;6.98;95.35;100789.78;20570216;28;20066;-67
2022/11/14 15:14:42;;;;;;;39.28;20.15;;;;;;;6.96;95.63;100791.63;20558511;28;20050;-65
2022/11/14 15:25:10;;;;;;;38.65;18.92;;;;;;;6.89;96.03;100779.88;20568275;28;20047;-65
2022/11/14 15:35:37;;;;;;;41.47;20.63;;;;;;;6.82;96.33;100770.75;20582333;28;20722;-64
2022/11/14 15:45:59;;;;;;;39.50;20.50;;;;;;;6.77;96.68;100770.13;20575915;28;20110;-64
2022/11/14 15:56:20;;;;;;;46.93;20.03;;;;;;;6.66;97.08;100775.94;20563111;28;20055;-65
2022/11/14 16:06:42;;;;;;;37.00;19.87;;;;;;;6.58;97.54;100757.31;20548328;28;20091;-69
2022/11/14 16:17:03;;;;;;;40.13;19.33;;;;;;;6.50;97.63;100749.94;20555428;28;20050;-68
2022/11/14 16:27:25;;;;;;;41.27;21.47;;;;;;;6.43;98.04;100755.50;20554423;28;20485;-69
2022/11/14 16:37:48;;;;;;;40.53;20.80;;;;;;;6.39;98.04;100741.03;20556312;28;20117;-68
2022/11/14 16:48:09;;;;;;;38.88;20.33;;;;;;;6.33;98.32;100752.50;20570810;28;20043;-69
2022/11/14 16:58:31;;;;;;;39.97;20.43;;;;;;;6.33;98.53;100730.97;20562940;28;20046;-69
2022/11/14 17:08:57;;;;;;;34.97;18.87;;;;;;;6.32;98.40;100748.28;20557680;28;20042;-69
2022/11/14 17:19:18;;;;;;;44.30;22.35;;;;;;;6.32;98.75;100734.47;20572058;28;20049;-69
2022/11/14 17:29:40;;;;;;;35.37;19.90;;;;;;;6.29;98.74;100714.75;20565159;28;20104;-69
2022/11/14 17:40:02;;;;;;;37.23;19.67;;;;;;;6.29;98.65;100704.41;20560403;28;20046;-70
2022/11/14 17:50:23;;;;;;;33.88;19.58;;;;;;;6.28;98.87;100691.53;20578443;28;20045;-70
2022/11/14 18:00:45;;;;;;;33.67;19.63;;;;;;;6.26;98.46;100699.38;20581037;28;20039;-69
2022/11/14 18:11:09;;;;;;;35.87;20.17;;;;;;;6.24;98.82;100687.44;20575640;28;20075;-68
2022/11/14 18:21:31;;;;;;;32.90;19.35;;;;;;;6.22;98.81;100686.66;20632172;23;20057;-65
2022/11/14 18:31:53;;;;;;;32.50;18.27;;;;;;;6.19;99.00;100676.47;20863003;28;20129;-65
2022/11/14 18:42:14;;;;;;;36.07;19.50;;;;;;;6.20;98.74;100662.63;20944823;28;20040;-65
2022/11/14 18:52:36;;;;;;;34.15;18.80;;;;;;;6.17;98.91;100655.84;20938422;28;20041;-62
2022/11/14 19:02:58;;;;;;;31.83;17.70;;;;;;;6.13;98.99;100656.03;20949183;28;20056;-62
2022/11/14 19:13:26;;;;;;;41.40;19.65;;;;;;;6.12;99.37;100639.69;20932009;28;20055;-62
2022/11/14 19:23:49;;;;;;;33.85;19.00;;;;;;;6.10;99.96;100645.88;20942217;28;20059;-63
2022/11/14 19:34:10;;;;;;;40.90;20.70;;;;;;;6.24;99.91;100620.16;20924015;28;20049;-62
2022/11/14 19:44:32;;;;;;;26.93;13.97;;;;;;;6.36;99.79;100611.75;20939174;28;20052;-62
2022/11/14 19:54:53;;;;;;;36.07;20.17;;;;;;;6.49;99.40;100605.03;20946364;28;20498;-62
2022/11/14 20:05:15;;;;;;;37.47;20.83;;;;;;;6.57;99.68;100579.56;20935905;28;20036;-63
2022/11/14 20:15:36;;;;;;;39.50;21.27;;;;;;;6.65;98.94;100592.97;20927207;28;20525;-63
2022/11/14 20:25:58;;;;;;;33.10;19.37;;;;;;;6.73;99.15;100586.47;20931619;28;20052;-62
2022/11/14 20:36:23;;;;;;;33.13;19.83;;;;;;;6.77;99.05;100575.00;20931505;28;20053;-63
2022/11/14 20:46:44;;;;;;;36.75;20.10;;;;;;;6.77;99.07;100560.31;20923775;28;20048;-62
2022/11/14 20:57:06;;;;;;;33.30;19.30;;;;;;;6.82;98.92;100560.94;20911808;28;20052;-62
2022/11/14 21:07:27;;;;;;;34.20;18.37;;;;;;;6.83;98.94;100547.06;20928126;28;20053;-62
2022/11/14 21:17:49;;;;;;;32.20;18.77;;;;;;;6.88;99.08;100534.69;20950881;28;20041;-62
2022/11/14 21:28:11;;;;;;;34.20;18.47;;;;;;;6.95;99.19;100523.06;21014208;28;20124;-63
2022/11/14 21:38:32;;;;;;;32.43;18.63;;;;;;;6.99;98.66;100514.19;20929250;28;20044;-62
2022/11/14 21:48:55;;;;;;;30.50;17.20;;;;;;;7.01;98.11;100524.50;20952076;28;20037;-63
2022/11/14 21:59:20;;;;;;;31.92;17.88;;;;;;;7.03;98.28;100513.09;20957649;28;20045;-62
2022/11/14 22:09:41;;;;;;;30.40;17.58;;;;;;;7.03;97.98;100510.53;20925545;28;20124;-62
2022/11/14 22:20:06;;;;;;;30.77;17.73;;;;;;;7.06;97.91;100510.34;20921155;28;20041;-63
2022/11/14 22:30:28;;;;;;;30.23;17.48;;;;;;;7.10;97.35;100498.06;20942921;28;20040;-61
2022/11/14 22:40:49;;;;;;;28.63;16.57;;;;;;;7.19;97.48;100493.19;20954366;28;20323;-62
2022/11/14 22:51:12;;;;;;;32.23;16.63;;;;;;;7.13;97.46;100488.34;20931933;28;20445;-62
2022/11/14 23:01:34;;;;;;;28.75;16.58;;;;;;;7.19;97.30;100484.59;20937694;28;20048;-62
2022/11/14 23:11:55;;;;;;;30.27;14.70;;;;;;;7.26;97.43;100472.94;20956099;28;20040;-62
2022/11/14 23:22:17;;;;;;;24.77;14.93;;;;;;;7.31;96.94;100466.56;20938913;28;20044;-61
2022/11/14 23:32:39;;;;;;;24.83;15.13;;;;;;;7.33;96.72;100469.94;20927227;28;20496;-62
2022/11/14 23:43:00;;;;;;;;;;;;;;;7.27;97.20;100464.25;20936275;28;20056;-61
2022/11/14 23:53:22;;;;;;;22.43;14.00;;;;;;;7.22;97.34;100461.94;20937121;28;19974;-62
